createdAt,value
2023-04-02T00:00:45.297Z,10.23
2023-04-02T00:01:47.799Z,10.22
2023-04-02T00:02:45.364Z,10.21
2023-04-02T00:03:45.387Z,10.21
2023-04-02T00:04:45.399Z,10.22
2023-04-02T00:05:45.661Z,10.22
2023-04-02T00:06:45.448Z,10.22
2023-04-02T00:07:45.236Z,10.23
2023-04-02T00:08:45.263Z,10.22
2023-04-02T00:09:45.257Z,10.2
2023-04-02T00:10:45.371Z,10.2
2023-04-02T00:11:45.393Z,10.24
2023-04-02T00:12:47.730Z,10.25
2023-04-02T00:13:45.689Z,10.24
2023-04-02T00:14:45.436Z,10.22
2023-04-02T00:15:45.683Z,10.23
2023-04-02T00:16:45.467Z,10.23
2023-04-02T00:17:45.265Z,10.26
2023-04-02T00:18:45.272Z,10.27
2023-04-02T00:19:45.243Z,10.26
2023-04-02T00:20:45.785Z,10.23
2023-04-02T00:21:45.279Z,10.25
2023-04-02T00:22:45.336Z,10.26
2023-04-02T00:23:47.812Z,10.25
2023-04-02T00:24:45.301Z,10.27
2023-04-02T00:25:45.861Z,10.29
2023-04-02T00:26:45.236Z,10.28
2023-04-02T00:27:45.246Z,10.28
2023-04-02T00:28:45.671Z,10.28
2023-04-02T00:29:45.246Z,10.28
2023-04-02T00:30:45.712Z,10.3
2023-04-02T00:31:45.291Z,10.29
2023-04-02T00:32:45.271Z,10.27
2023-04-02T00:33:45.237Z,10.23
2023-04-02T00:34:47.701Z,10.22
2023-04-02T00:35:45.691Z,10.23
2023-04-02T00:36:45.243Z,10.26
2023-04-02T00:37:45.261Z,10.27
2023-04-02T00:38:46.702Z,10.32
2023-04-02T00:39:45.259Z,10.33
2023-04-02T00:40:45.660Z,10.27
2023-04-02T00:41:45.268Z,10.24
2023-04-02T00:42:45.270Z,10.23
2023-04-02T00:43:45.660Z,10.25
2023-04-02T00:44:45.271Z,10.26
2023-04-02T00:45:48.099Z,10.26
2023-04-02T00:46:45.240Z,10.25
2023-04-02T00:47:45.375Z,10.26
2023-04-02T00:48:45.285Z,10.27
2023-04-02T00:49:45.258Z,10.21
2023-04-02T00:50:45.652Z,10.18
2023-04-02T00:51:45.238Z,10.15
2023-04-02T00:52:45.242Z,10.14
2023-04-02T00:53:45.240Z,10.14
2023-04-02T00:54:45.383Z,10.12
2023-04-02T00:55:54.126Z,10.14
2023-04-02T00:56:47.714Z,10.13
2023-04-02T00:57:45.685Z,10.15
2023-04-02T00:58:45.654Z,10.14
2023-04-02T00:59:45.356Z,10.14
2023-04-02T01:00:45.246Z,10.14
2023-04-02T01:01:45.795Z,10.15
2023-04-02T01:02:45.416Z,10.15
2023-04-02T01:03:45.352Z,10.22
2023-04-02T01:04:45.244Z,10.23
2023-04-02T01:05:45.291Z,10.22
2023-04-02T01:06:45.690Z,10.22
2023-04-02T01:07:47.646Z,10.22
2023-04-02T01:08:45.241Z,10.25
2023-04-02T01:09:45.243Z,10.24
2023-04-02T01:10:45.264Z,10.22
2023-04-02T01:11:45.680Z,10.19
2023-04-02T01:12:45.255Z,10.13
2023-04-02T01:13:45.691Z,10.16
2023-04-02T01:14:45.256Z,10.17
2023-04-02T01:15:45.268Z,10.17
2023-04-02T01:16:45.695Z,10.15
2023-04-02T01:17:45.313Z,10.14
2023-04-02T01:18:47.640Z,10.12
2023-04-02T01:19:45.367Z,10.13
2023-04-02T01:20:45.261Z,10.14
2023-04-02T01:21:45.662Z,10.17
2023-04-02T01:22:45.263Z,10.15
2023-04-02T01:23:45.246Z,10.14
2023-04-02T01:24:45.257Z,10.14
2023-04-02T01:25:45.268Z,10.15
2023-04-02T01:26:45.729Z,10.16
2023-04-02T01:27:45.262Z,10.17
2023-04-02T01:28:45.648Z,10.18
2023-04-02T01:29:47.685Z,10.16
2023-04-02T01:30:45.240Z,10.13
2023-04-02T01:31:45.504Z,10.15
2023-04-02T01:32:45.268Z,10.18
2023-04-02T01:33:45.254Z,10.19
2023-04-02T01:34:45.257Z,10.2
2023-04-02T01:35:45.295Z,10.2
2023-04-02T01:36:45.656Z,10.17
2023-04-02T01:37:45.267Z,10.17
2023-04-02T01:38:45.283Z,10.16
2023-04-02T01:39:45.244Z,10.16
2023-04-02T01:40:47.685Z,10.13
2023-04-02T01:41:45.681Z,10.13
2023-04-02T01:42:45.239Z,10.14
2023-04-02T01:43:45.286Z,10.14
2023-04-02T01:44:45.248Z,10.16
2023-04-02T01:45:45.258Z,10.14
2023-04-02T01:46:45.687Z,10.13
2023-04-02T01:47:45.303Z,10.1
2023-04-02T01:48:45.245Z,10.09
2023-04-02T01:49:45.251Z,10.09
2023-04-02T01:50:45.256Z,10.09
2023-04-02T01:51:50.196Z,10.08
2023-04-02T01:52:45.253Z,10.04
2023-04-02T01:53:45.224Z,10.04
2023-04-02T01:54:45.242Z,10.06
2023-04-02T01:55:45.237Z,10.08
2023-04-02T01:56:45.669Z,10.09
2023-04-02T01:57:45.259Z,10.12
2023-04-02T01:58:45.290Z,10.12
2023-04-02T01:59:45.258Z,10.11
2023-04-02T02:00:45.274Z,10.08
2023-04-02T02:01:45.707Z,10.06
2023-04-02T02:02:47.633Z,10.04
2023-04-02T02:03:45.411Z,10.07
2023-04-02T02:04:45.250Z,10.09
2023-04-02T02:05:45.376Z,10.11
2023-04-02T02:06:46.147Z,10.11
2023-04-02T02:07:45.259Z,10.11
2023-04-02T02:08:45.260Z,10.1
2023-04-02T02:09:45.269Z,10.08
2023-04-02T02:10:45.275Z,10.05
2023-04-02T02:11:45.709Z,10.04
2023-04-02T02:12:45.229Z,10
2023-04-02T02:13:50.145Z,9.99
2023-04-02T02:14:45.263Z,9.98
2023-04-02T02:15:45.259Z,9.94
2023-04-02T02:16:45.703Z,9.93
2023-04-02T02:17:45.263Z,9.92
2023-04-02T02:18:45.268Z,9.92
2023-04-02T02:19:45.267Z,9.94
2023-04-02T02:20:45.268Z,9.93
2023-04-02T02:21:45.673Z,9.93
2023-04-02T02:22:45.365Z,9.93
2023-04-02T02:23:45.401Z,9.95
2023-04-02T02:24:47.605Z,9.96
2023-04-02T02:25:45.259Z,9.95
2023-04-02T02:26:45.807Z,9.96
2023-04-02T02:27:45.266Z,9.95
2023-04-02T02:28:45.686Z,9.94
2023-04-02T02:29:45.244Z,9.95
2023-04-02T02:30:45.238Z,9.98
2023-04-02T02:31:45.692Z,10
2023-04-02T02:32:45.267Z,10.02
2023-04-02T02:33:45.245Z,10
2023-04-02T02:34:45.322Z,10.02
2023-04-02T02:35:47.604Z,10.02
2023-04-02T02:36:45.699Z,10.06
2023-04-02T02:37:45.257Z,10.05
2023-04-02T02:38:45.253Z,10.03
2023-04-02T02:39:45.243Z,10.04
2023-04-02T02:40:45.383Z,9.98
2023-04-02T02:41:45.691Z,9.97
2023-04-02T02:42:45.258Z,9.98
2023-04-02T02:43:45.293Z,9.98
2023-04-02T02:44:45.274Z,9.96
2023-04-02T02:45:45.270Z,9.96
2023-04-02T02:46:47.748Z,10
2023-04-02T02:47:45.402Z,9.94
2023-04-02T02:48:45.396Z,9.92
2023-04-02T02:49:45.240Z,9.91
2023-04-02T02:50:45.247Z,9.93
2023-04-02T02:51:45.704Z,9.9
2023-04-02T02:52:45.253Z,9.9
2023-04-02T02:53:45.385Z,9.93
2023-04-02T02:54:45.241Z,9.9
2023-04-02T02:55:45.277Z,9.91
2023-04-02T02:56:45.740Z,9.91
2023-04-02T02:57:47.623Z,9.9
2023-04-02T02:58:45.660Z,9.86
2023-04-02T02:59:45.236Z,9.85
2023-04-02T03:00:45.257Z,9.83
2023-04-02T03:01:45.812Z,9.81
2023-04-02T03:02:45.380Z,9.83
2023-04-02T03:03:45.508Z,9.83
2023-04-02T03:04:45.392Z,9.85
2023-04-02T03:05:45.257Z,9.89
2023-04-02T03:06:45.663Z,9.89
2023-04-02T03:07:45.236Z,9.92
2023-04-02T03:08:47.577Z,9.92
2023-04-02T03:09:45.253Z,9.93
2023-04-02T03:10:45.305Z,9.92
2023-04-02T03:11:45.659Z,9.9
2023-04-02T03:12:45.249Z,9.88
2023-04-02T03:13:45.250Z,9.87
2023-04-02T03:14:45.317Z,9.9
2023-04-02T03:15:45.282Z,9.88
2023-04-02T03:16:45.364Z,9.84
2023-04-02T03:17:45.276Z,9.82
2023-04-02T03:18:45.257Z,9.8
2023-04-02T03:19:47.643Z,9.78
2023-04-02T03:20:45.252Z,9.76
2023-04-02T03:21:45.669Z,9.76
2023-04-02T03:22:45.257Z,9.78
2023-04-02T03:23:45.275Z,9.79
2023-04-02T03:24:45.257Z,9.82
2023-04-02T03:25:45.239Z,9.82
2023-04-02T03:26:45.694Z,9.84
2023-04-02T03:27:45.248Z,9.85
2023-04-02T03:28:45.657Z,9.85
2023-04-02T03:29:45.254Z,9.85
2023-04-02T03:30:47.656Z,9.88
2023-04-02T03:31:45.718Z,9.84
2023-04-02T03:32:45.314Z,9.81
2023-04-02T03:33:45.249Z,9.8
2023-04-02T03:34:45.268Z,9.8
2023-04-02T03:35:45.278Z,9.82
2023-04-02T03:36:45.651Z,9.8
2023-04-02T03:37:45.257Z,9.81
2023-04-02T03:38:45.278Z,9.82
2023-04-02T03:39:45.260Z,9.85
2023-04-02T03:40:45.376Z,9.9
2023-04-02T03:41:50.131Z,9.88
2023-04-02T03:42:45.261Z,9.86
2023-04-02T03:43:45.663Z,9.86
2023-04-02T03:44:45.315Z,9.88
2023-04-02T03:45:45.261Z,9.92
2023-04-02T03:46:45.355Z,9.92
2023-04-02T03:47:45.313Z,9.93
2023-04-02T03:48:45.257Z,9.93
2023-04-02T03:49:45.270Z,9.92
2023-04-02T03:50:45.257Z,9.92
2023-04-02T03:51:45.684Z,9.92
2023-04-02T03:52:47.763Z,9.93
2023-04-02T03:53:45.265Z,9.95
2023-04-02T03:54:54.162Z,9.97
2023-04-02T03:55:45.241Z,9.99
2023-04-02T03:56:45.671Z,9.96
2023-04-02T03:57:45.261Z,9.95
2023-04-02T03:58:45.371Z,9.93
2023-04-02T03:59:45.271Z,9.95
2023-04-02T04:00:45.254Z,9.97
2023-04-02T04:01:45.707Z,9.95
2023-04-02T04:02:45.265Z,9.96
2023-04-02T04:03:47.628Z,9.92
2023-04-02T04:04:45.251Z,9.93
2023-04-02T04:05:45.247Z,9.98
2023-04-02T04:06:45.669Z,9.99
2023-04-02T04:07:45.350Z,9.99
2023-04-02T04:08:45.245Z,9.99
2023-04-02T04:09:45.369Z,9.97
2023-04-02T04:10:45.244Z,9.95
2023-04-02T04:11:45.754Z,9.94
2023-04-02T04:12:45.225Z,9.93
2023-04-02T04:13:45.680Z,9.93
2023-04-02T04:14:47.648Z,9.91
2023-04-02T04:15:45.276Z,9.9
2023-04-02T04:16:45.733Z,9.92
2023-04-02T04:17:45.289Z,9.93
2023-04-02T04:18:45.261Z,9.93
2023-04-02T04:19:45.822Z,9.92
2023-04-02T04:20:45.257Z,9.91
2023-04-02T04:21:45.676Z,9.9
2023-04-02T04:22:45.259Z,9.88
2023-04-02T04:23:45.348Z,9.87
2023-04-02T04:24:45.244Z,9.89
2023-04-02T04:25:47.606Z,9.91
2023-04-02T04:26:45.648Z,9.93
2023-04-02T04:27:45.322Z,9.92
2023-04-02T04:28:45.677Z,9.92
2023-04-02T04:29:45.245Z,9.93
2023-04-02T04:30:45.258Z,9.94
2023-04-02T04:31:45.773Z,9.96
2023-04-02T04:32:45.299Z,9.95
2023-04-02T04:33:45.258Z,9.96
2023-04-02T04:34:45.232Z,9.92
2023-04-02T04:35:45.260Z,9.88
2023-04-02T04:36:50.079Z,9.87
2023-04-02T04:37:45.264Z,9.86
2023-04-02T04:38:45.277Z,9.85
2023-04-02T04:39:45.246Z,9.84
2023-04-02T04:40:45.256Z,9.83
2023-04-02T04:41:45.267Z,9.82
2023-04-02T04:42:45.274Z,9.81
2023-04-02T04:43:45.381Z,9.8
2023-04-02T04:44:45.242Z,9.78
2023-04-02T04:45:45.286Z,9.79
2023-04-02T04:46:45.659Z,9.81
2023-04-02T04:47:47.692Z,9.81
2023-04-02T04:48:45.253Z,9.82
2023-04-02T04:49:45.257Z,9.84
2023-04-02T04:50:45.262Z,9.88
2023-04-02T04:51:45.746Z,9.91
2023-04-02T04:52:45.325Z,9.95
2023-04-02T04:53:45.242Z,9.97
2023-04-02T04:54:45.234Z,9.98
2023-04-02T04:55:45.269Z,9.99
2023-04-02T04:56:45.673Z,9.98
2023-04-02T04:57:45.254Z,9.98
2023-04-02T04:58:47.611Z,9.98
2023-04-02T04:59:45.285Z,9.95
2023-04-02T05:00:45.247Z,9.96
2023-04-02T05:01:45.715Z,9.95
2023-04-02T05:02:45.259Z,9.95
2023-04-02T05:03:45.267Z,9.94
2023-04-02T05:04:45.261Z,9.92
2023-04-02T05:05:45.267Z,9.9
2023-04-02T05:06:45.678Z,9.88
2023-04-02T05:07:45.226Z,9.86
2023-04-02T05:08:45.248Z,9.85
2023-04-02T05:09:47.600Z,9.83
2023-04-02T05:10:45.268Z,9.82
2023-04-02T05:11:45.660Z,9.83
2023-04-02T05:12:45.364Z,9.83
2023-04-02T05:13:45.792Z,9.82
2023-04-02T05:14:45.259Z,9.85
2023-04-02T05:15:45.381Z,9.87
2023-04-02T05:16:45.692Z,9.88
2023-04-02T05:17:45.267Z,9.89
2023-04-02T05:18:45.370Z,9.9
2023-04-02T05:19:45.379Z,9.93
2023-04-02T05:20:47.608Z,9.99
2023-04-02T05:21:45.671Z,10.06
2023-04-02T05:22:45.252Z,10.09
2023-04-02T05:23:45.231Z,10.14
2023-04-02T05:24:45.232Z,10.16
2023-04-02T05:25:45.223Z,10.18
2023-04-02T05:26:45.686Z,10.19
2023-04-02T05:27:45.242Z,10.25
2023-04-02T05:28:45.706Z,10.27
2023-04-02T05:29:45.384Z,10.29
2023-04-02T05:30:45.256Z,10.3
2023-04-02T05:31:50.366Z,10.31
2023-04-02T05:32:45.278Z,10.34
2023-04-02T05:33:45.238Z,10.38
2023-04-02T05:34:45.350Z,10.41
2023-04-02T05:35:45.311Z,10.37
2023-04-02T05:36:45.661Z,10.33
2023-04-02T05:37:45.400Z,10.33
2023-04-02T05:38:45.265Z,10.32
2023-04-02T05:39:45.265Z,10.33
2023-04-02T05:40:45.223Z,10.33
2023-04-02T05:41:45.705Z,10.35
2023-04-02T05:42:47.674Z,10.39
2023-04-02T05:43:45.684Z,10.44
2023-04-02T05:44:45.304Z,10.45
2023-04-02T05:45:45.262Z,10.45
2023-04-02T05:46:45.764Z,10.46
2023-04-02T05:47:45.294Z,10.51
2023-04-02T05:48:45.276Z,10.55
2023-04-02T05:49:45.251Z,10.58
2023-04-02T05:50:45.290Z,10.62
2023-04-02T05:51:45.707Z,10.66
2023-04-02T05:52:45.241Z,10.7
2023-04-02T05:53:47.807Z,10.73
2023-04-02T05:54:45.264Z,10.75
2023-04-02T05:55:45.365Z,10.76
2023-04-02T05:56:45.671Z,10.82
2023-04-02T05:57:54.902Z,10.86
2023-04-02T05:58:45.860Z,10.89
2023-04-02T05:59:45.332Z,10.93
2023-04-02T06:00:45.262Z,10.94
2023-04-02T06:01:45.765Z,10.95
2023-04-02T06:02:45.303Z,10.92
2023-04-02T06:03:45.369Z,10.88
2023-04-02T06:04:47.618Z,10.85
2023-04-02T06:05:45.243Z,10.81
2023-04-02T06:06:45.698Z,10.78
2023-04-02T06:07:45.270Z,10.8
2023-04-02T06:08:45.258Z,10.81
2023-04-02T06:09:45.252Z,10.8
2023-04-02T06:10:45.244Z,10.81
2023-04-02T06:11:45.640Z,10.82
2023-04-02T06:12:45.330Z,10.79
2023-04-02T06:13:45.693Z,10.76
2023-04-02T06:14:45.387Z,10.76
2023-04-02T06:15:48.003Z,10.76
2023-04-02T06:16:45.696Z,10.73
2023-04-02T06:17:45.444Z,10.7
2023-04-02T06:18:45.229Z,10.7
2023-04-02T06:19:45.278Z,10.72
2023-04-02T06:20:45.245Z,10.7
2023-04-02T06:21:45.688Z,10.65
2023-04-02T06:22:45.402Z,10.58
2023-04-02T06:23:45.259Z,10.48
2023-04-02T06:24:45.271Z,10.44
2023-04-02T06:25:45.401Z,10.39
2023-04-02T06:26:50.108Z,10.25
2023-04-02T06:27:45.373Z,10.11
2023-04-02T06:28:45.647Z,9.79
2023-04-02T06:29:45.257Z,9.39
2023-04-02T06:30:45.297Z,8.97
2023-04-02T06:31:45.883Z,8.84
2023-04-02T06:32:45.296Z,8.73
2023-04-02T06:33:45.297Z,8.4
2023-04-02T06:34:45.263Z,8.32
2023-04-02T06:35:45.284Z,8.16
2023-04-02T06:36:45.659Z,8.15
2023-04-02T06:37:47.652Z,8.04
2023-04-02T06:38:45.254Z,7.9
2023-04-02T06:39:45.250Z,7.85
2023-04-02T06:40:45.273Z,7.76
2023-04-02T06:41:45.431Z,7.75
2023-04-02T06:42:45.269Z,7.81
2023-04-02T06:43:45.402Z,7.83
2023-04-02T06:44:45.272Z,7.86
2023-04-02T06:45:45.357Z,7.89
2023-04-02T06:46:45.687Z,7.82
2023-04-02T06:47:45.431Z,7.81
2023-04-02T06:48:47.647Z,7.8
2023-04-02T06:49:45.268Z,7.77
2023-04-02T06:50:45.260Z,7.73
2023-04-02T06:51:45.674Z,7.77
2023-04-02T06:52:45.260Z,7.65
2023-04-02T06:53:45.256Z,7.62
2023-04-02T06:54:45.310Z,7.58
2023-04-02T06:55:45.245Z,7.58
2023-04-02T06:56:45.698Z,7.58
2023-04-02T06:57:45.254Z,7.54
2023-04-02T06:58:45.684Z,7.53
2023-04-02T06:59:47.648Z,7.59
2023-04-02T07:00:45.248Z,7.71
2023-04-02T07:01:45.709Z,7.63
2023-04-02T07:02:45.258Z,7.55
2023-04-02T07:03:45.357Z,7.59
2023-04-02T07:04:45.347Z,7.61
2023-04-02T07:05:45.324Z,7.69
2023-04-02T07:06:45.689Z,7.73
2023-04-02T07:07:45.255Z,7.75
2023-04-02T07:08:45.240Z,7.78
2023-04-02T07:09:45.261Z,7.8
2023-04-02T07:10:47.614Z,7.79
2023-04-02T07:11:45.674Z,7.75
2023-04-02T07:12:45.248Z,7.79
2023-04-02T07:13:45.682Z,7.83
2023-04-02T07:14:45.239Z,7.79
2023-04-02T07:15:45.245Z,7.8
2023-04-02T07:16:45.670Z,7.81
2023-04-02T07:17:45.300Z,7.86
2023-04-02T07:18:45.254Z,7.88
2023-04-02T07:19:45.236Z,7.96
2023-04-02T07:20:45.251Z,8.03
2023-04-02T07:21:47.717Z,7.91
2023-04-02T07:22:45.233Z,7.79
2023-04-02T07:23:45.389Z,7.74
2023-04-02T07:24:45.252Z,7.83
2023-04-02T07:25:45.244Z,7.76
2023-04-02T07:26:45.646Z,7.68
2023-04-02T07:27:45.257Z,7.66
2023-04-02T07:28:45.650Z,7.61
2023-04-02T07:29:45.251Z,7.59
2023-04-02T07:30:45.242Z,7.65
2023-04-02T07:31:45.766Z,7.75
2023-04-02T07:32:47.612Z,7.73
2023-04-02T07:33:45.231Z,7.68
2023-04-02T07:34:45.248Z,7.65
2023-04-02T07:35:45.277Z,7.58
2023-04-02T07:36:45.685Z,7.51
2023-04-02T07:37:45.229Z,7.45
2023-04-02T07:38:45.314Z,7.36
2023-04-02T07:39:45.252Z,7.33
2023-04-02T07:40:45.242Z,7.32
2023-04-02T07:41:45.374Z,7.25
2023-04-02T07:42:45.282Z,7.2
2023-04-02T07:43:50.098Z,7.21
2023-04-02T07:44:45.266Z,7.2
2023-04-02T07:45:45.242Z,7.18
2023-04-02T07:46:45.448Z,7.18
2023-04-02T07:47:45.299Z,7.28
2023-04-02T07:48:45.240Z,7.28
2023-04-02T07:49:45.382Z,7.35
2023-04-02T07:50:45.258Z,7.44
2023-04-02T07:51:45.697Z,7.33
2023-04-02T07:52:45.263Z,7.18
2023-04-02T07:53:45.248Z,7.21
2023-04-02T07:54:47.794Z,7.22
2023-04-02T07:55:45.224Z,7.22
2023-04-02T07:56:45.429Z,7.21
2023-04-02T07:57:46.837Z,7.13
2023-04-02T07:58:45.752Z,7.09
2023-04-02T07:59:45.237Z,7.06
2023-04-02T08:00:45.330Z,7.05
2023-04-02T08:01:45.690Z,7.09
2023-04-02T08:02:45.276Z,7.16
2023-04-02T08:03:45.335Z,7.18
2023-04-02T08:04:45.253Z,7.21
2023-04-02T08:05:47.636Z,7.15
2023-04-02T08:06:45.687Z,7.1
2023-04-02T08:07:45.250Z,7.12
2023-04-02T08:08:45.258Z,7.08
2023-04-02T08:09:45.339Z,7.01
2023-04-02T08:10:45.248Z,6.85
2023-04-02T08:11:45.675Z,6.85
2023-04-02T08:12:45.258Z,6.82
2023-04-02T08:13:45.320Z,6.86
2023-04-02T08:14:45.258Z,6.83
2023-04-02T08:15:45.317Z,6.88
2023-04-02T08:16:47.750Z,7
2023-04-02T08:17:45.271Z,7.05
2023-04-02T08:18:45.393Z,7.02
2023-04-02T08:19:54.649Z,6.98
2023-04-02T08:20:45.258Z,7.01
2023-04-02T08:21:45.705Z,7.12
2023-04-02T08:22:45.378Z,7.22
2023-04-02T08:23:45.281Z,7.22
2023-04-02T08:24:45.394Z,7.23
2023-04-02T08:25:45.258Z,7.25
2023-04-02T08:26:45.687Z,7.31
2023-04-02T08:27:47.633Z,7.37
2023-04-02T08:28:45.672Z,7.49
2023-04-02T08:29:45.267Z,7.38
2023-04-02T08:30:45.275Z,7.36
2023-04-02T08:31:45.410Z,7.38
2023-04-02T08:32:45.458Z,7.42
2023-04-02T08:33:45.266Z,7.39
2023-04-02T08:34:45.237Z,7.44
2023-04-02T08:35:45.384Z,7.69
2023-04-02T08:36:45.673Z,7.64
2023-04-02T08:37:45.360Z,7.72
2023-04-02T08:38:47.620Z,7.81
2023-04-02T08:39:45.325Z,7.72
2023-04-02T08:40:45.400Z,7.54
2023-04-02T08:41:45.693Z,7.61
2023-04-02T08:42:45.264Z,7.8
2023-04-02T08:43:45.380Z,7.85
2023-04-02T08:44:45.381Z,7.85
2023-04-02T08:45:45.275Z,8.02
2023-04-02T08:46:45.376Z,8.06
2023-04-02T08:47:45.343Z,8.25
2023-04-02T08:48:45.243Z,8.24
2023-04-02T08:49:47.592Z,8.27
2023-04-02T08:50:45.370Z,8.19
2023-04-02T08:51:45.343Z,8.03
2023-04-02T08:52:45.255Z,7.97
2023-04-02T08:53:45.215Z,7.98
2023-04-02T08:54:45.263Z,8.01
2023-04-02T08:55:45.731Z,7.87
2023-04-02T08:56:45.709Z,7.69
2023-04-02T08:57:45.223Z,7.72
2023-04-02T08:58:45.672Z,7.73
2023-04-02T08:59:45.250Z,7.73
2023-04-02T09:00:47.576Z,7.72
2023-04-02T09:01:45.715Z,7.74
2023-04-02T09:02:45.322Z,7.8
2023-04-02T09:03:45.244Z,7.8
2023-04-02T09:04:45.325Z,7.71
2023-04-02T09:05:45.253Z,7.69
2023-04-02T09:06:45.727Z,7.84
2023-04-02T09:07:45.262Z,7.96
2023-04-02T09:08:45.245Z,8.05
2023-04-02T09:09:45.257Z,8.02
2023-04-02T09:10:45.530Z,8.05
2023-04-02T09:11:50.142Z,7.96
2023-04-02T09:12:45.262Z,7.91
2023-04-02T09:13:45.740Z,8.04
2023-04-02T09:14:45.263Z,8.19
2023-04-02T09:15:45.302Z,8.31
2023-04-02T09:16:45.656Z,8.42
2023-04-02T09:17:53.712Z,8.64
2023-04-02T09:18:45.305Z,8.77
2023-04-02T09:19:45.247Z,8.78
2023-04-02T09:20:45.259Z,8.78
2023-04-02T09:21:45.659Z,8.68
2023-04-02T09:22:47.647Z,8.51
2023-04-02T09:23:45.253Z,8.53
2023-04-02T09:24:45.264Z,8.45
2023-04-02T09:25:51.050Z,8.5
2023-04-02T09:26:45.262Z,8.72
2023-04-02T09:27:45.268Z,8.72
2023-04-02T09:28:45.268Z,8.63
2023-04-02T09:29:45.385Z,8.67
2023-04-02T09:30:45.243Z,8.74
2023-04-02T09:31:45.604Z,8.83
2023-04-02T09:32:45.408Z,8.75
2023-04-02T09:33:47.705Z,8.92
2023-04-02T09:34:45.271Z,8.88
2023-04-02T09:35:45.400Z,8.98
2023-04-02T09:36:45.678Z,8.81
2023-04-02T09:37:45.377Z,8.98
2023-04-02T09:38:45.282Z,8.93
2023-04-02T09:39:45.253Z,9.02
2023-04-02T09:40:45.643Z,9.36
2023-04-02T09:41:50.259Z,9.55
2023-04-02T09:42:45.260Z,9.52
2023-04-02T09:43:45.742Z,9.71
2023-04-02T09:44:47.632Z,9.76
2023-04-02T09:45:45.379Z,9.91
2023-04-02T09:46:45.353Z,9.72
2023-04-02T09:47:45.284Z,9.75
2023-04-02T09:48:45.236Z,9.62
2023-04-02T09:49:45.337Z,9.48
2023-04-02T09:50:45.269Z,9.57
2023-04-02T09:51:45.693Z,9.66
2023-04-02T09:52:45.259Z,9.54
2023-04-02T09:53:45.355Z,9.51
2023-04-02T09:54:45.272Z,9.34
2023-04-02T09:55:47.614Z,9.32
2023-04-02T09:56:45.296Z,9.45
2023-04-02T09:57:45.235Z,9.39
2023-04-02T09:58:45.686Z,9.41
2023-04-02T09:59:45.342Z,9.35
2023-04-02T10:00:45.515Z,9.56
2023-04-02T10:01:45.673Z,9.46
2023-04-02T10:02:45.262Z,9.27
2023-04-02T10:03:45.301Z,9.41
2023-04-02T10:04:45.585Z,9.61
2023-04-02T10:05:45.357Z,9.74
2023-04-02T10:06:48.133Z,9.63
2023-04-02T10:07:45.278Z,9.68
2023-04-02T10:08:45.260Z,9.89
2023-04-02T10:09:45.256Z,9.95
2023-04-02T10:10:45.286Z,10.32
2023-04-02T10:11:46.572Z,10.32
2023-04-02T10:12:45.249Z,10.29
2023-04-02T10:13:45.320Z,10.04
2023-04-02T10:14:45.254Z,10.44
2023-04-02T10:15:45.313Z,10.91
2023-04-02T10:16:45.730Z,11.16
2023-04-02T10:17:47.701Z,11.08
2023-04-02T10:18:45.245Z,10.95
2023-04-02T10:19:45.269Z,10.83
2023-04-02T10:20:51.390Z,10.65
2023-04-02T10:21:45.681Z,10.58
2023-04-02T10:22:45.246Z,10.17
2023-04-02T10:23:45.256Z,9.92
2023-04-02T10:24:45.254Z,9.8
2023-04-02T10:25:45.255Z,9.53
2023-04-02T10:26:45.677Z,9.36
2023-04-02T10:27:45.232Z,9.45
2023-04-02T10:28:50.142Z,9.42
2023-04-02T10:29:45.233Z,9.35
2023-04-02T10:30:45.287Z,9.26
2023-04-02T10:31:45.674Z,9.32
2023-04-02T10:32:45.420Z,9.54
2023-04-02T10:33:45.247Z,9.44
2023-04-02T10:34:45.237Z,9.42
2023-04-02T10:35:45.273Z,9.66
2023-04-02T10:36:45.676Z,9.58
2023-04-02T10:37:45.227Z,9.31
2023-04-02T10:38:45.279Z,9.5
2023-04-02T10:39:47.591Z,9.24
2023-04-02T10:40:45.246Z,8.79
2023-04-02T10:41:45.732Z,8.89
2023-04-02T10:42:45.266Z,9.05
2023-04-02T10:43:45.401Z,8.8
2023-04-02T10:44:45.258Z,9.05
2023-04-02T10:45:45.297Z,9.04
2023-04-02T10:46:45.364Z,8.81
2023-04-02T10:47:45.294Z,8.88
2023-04-02T10:48:45.262Z,9.03
2023-04-02T10:49:45.380Z,9.09
2023-04-02T10:50:47.674Z,9.39
2023-04-02T10:51:45.315Z,9.5
2023-04-02T10:52:45.231Z,9.42
2023-04-02T10:53:45.323Z,9.23
2023-04-02T10:54:45.269Z,9.41
2023-04-02T10:55:45.251Z,9.31
2023-04-02T10:56:51.095Z,9.34
2023-04-02T10:57:45.243Z,9.19
2023-04-02T10:58:45.709Z,9.24
2023-04-02T10:59:45.256Z,9.2
2023-04-02T11:00:45.397Z,9.29
2023-04-02T11:01:47.754Z,9.5
2023-04-02T11:02:45.316Z,9.66
2023-04-02T11:03:45.337Z,9.52
2023-04-02T11:04:45.233Z,9.55
2023-04-02T11:05:45.265Z,9.56
2023-04-02T11:06:45.389Z,9.63
2023-04-02T11:07:45.264Z,9.27
2023-04-02T11:08:45.245Z,9.33
2023-04-02T11:09:45.276Z,9.21
2023-04-02T11:10:45.265Z,9.03
2023-04-02T11:11:45.358Z,8.91
2023-04-02T11:12:47.584Z,8.93
2023-04-02T11:13:45.708Z,8.9
2023-04-02T11:14:45.261Z,8.93
2023-04-02T11:15:45.270Z,9.14
2023-04-02T11:16:45.334Z,9.32
2023-04-02T11:17:45.277Z,9.37
2023-04-02T11:18:45.360Z,9.5
2023-04-02T11:19:45.341Z,9.38
2023-04-02T11:20:45.252Z,9.59
2023-04-02T11:21:57.959Z,9.89
2023-04-02T11:22:45.273Z,10.2
2023-04-02T11:23:47.643Z,10.23
2023-04-02T11:24:45.419Z,10.15
2023-04-02T11:25:45.300Z,9.96
2023-04-02T11:26:45.377Z,9.83
2023-04-02T11:27:45.254Z,10.01
2023-04-02T11:28:47.865Z,10.13
2023-04-02T11:29:45.224Z,10.55
2023-04-02T11:30:45.242Z,10.83
2023-04-02T11:31:45.373Z,10.8
2023-04-02T11:32:45.412Z,10.64
2023-04-02T11:33:47.386Z,10.31
2023-04-02T11:34:56.383Z,10.14
2023-04-02T11:35:45.318Z,10.21
2023-04-02T11:36:46.194Z,10.1
2023-04-02T11:37:45.338Z,10.1
2023-04-02T11:38:45.668Z,10.22
2023-04-02T11:39:45.285Z,10.37
2023-04-02T11:40:45.274Z,10.66
2023-04-02T11:41:45.373Z,10.88
2023-04-02T11:42:45.265Z,10.95
2023-04-02T11:43:45.266Z,10.99
2023-04-02T11:44:45.281Z,10.97
2023-04-02T11:45:52.579Z,10.84
2023-04-02T11:46:45.302Z,10.79
2023-04-02T11:47:45.721Z,10.78
2023-04-02T11:48:45.354Z,10.6
2023-04-02T11:49:45.236Z,10.49
2023-04-02T11:50:45.272Z,10.34
2023-04-02T11:51:45.241Z,10.21
2023-04-02T11:52:45.667Z,10.07
2023-04-02T11:53:45.271Z,10.06
2023-04-02T11:54:45.283Z,9.87
2023-04-02T11:55:45.287Z,9.93
2023-04-02T11:56:47.677Z,9.94
2023-04-02T11:57:45.673Z,10.02
2023-04-02T11:58:45.249Z,10.12
2023-04-02T11:59:45.683Z,10.29
2023-04-02T12:00:45.282Z,10.44
2023-04-02T12:01:45.353Z,10.32
2023-04-02T12:02:45.807Z,10.38
2023-04-02T12:03:45.257Z,10.43
2023-04-02T12:04:45.306Z,10.33
2023-04-02T12:05:45.329Z,10.27
2023-04-02T12:06:45.258Z,10.1
2023-04-02T12:07:47.629Z,10.1
2023-04-02T12:08:57.220Z,10.31
2023-04-02T12:09:45.262Z,10.31
2023-04-02T12:10:45.256Z,10.29
2023-04-02T12:11:45.243Z,10.3
2023-04-02T12:12:45.991Z,10.18
2023-04-02T12:13:45.251Z,9.91
2023-04-02T12:14:45.772Z,9.67
2023-04-02T12:15:45.241Z,9.55
2023-04-02T12:16:45.340Z,9.49
2023-04-02T12:17:45.755Z,9.49
2023-04-02T12:18:47.696Z,9.66
2023-04-02T12:19:45.267Z,9.74
2023-04-02T12:20:45.259Z,9.98
2023-04-02T12:21:45.258Z,10.2
2023-04-02T12:22:45.693Z,9.98
2023-04-02T12:23:45.242Z,9.93
2023-04-02T12:24:45.266Z,10.13
2023-04-02T12:25:45.256Z,10.12
2023-04-02T12:26:45.272Z,10.29
2023-04-02T12:27:45.761Z,10.21
2023-04-02T12:28:45.358Z,10.17
2023-04-02T12:29:50.226Z,10.31
2023-04-02T12:30:45.281Z,10.42
2023-04-02T12:31:45.244Z,10.35
2023-04-02T12:32:45.689Z,10.12
2023-04-02T12:33:45.491Z,9.93
2023-04-02T12:34:45.248Z,9.99
2023-04-02T12:35:45.271Z,9.91
2023-04-02T12:36:45.241Z,9.68
2023-04-02T12:37:45.642Z,9.66
2023-04-02T12:38:45.231Z,9.77
2023-04-02T12:39:45.251Z,9.59
2023-04-02T12:40:47.692Z,9.36
2023-04-02T12:41:45.254Z,9.23
2023-04-02T12:42:45.718Z,9.24
2023-04-02T12:43:45.261Z,9.24
2023-04-02T12:44:45.271Z,9.24
2023-04-02T12:45:45.261Z,9.15
2023-04-02T12:46:45.266Z,9.05
2023-04-02T12:47:45.362Z,9.07
2023-04-02T12:48:45.261Z,8.96
2023-04-02T12:49:45.320Z,8.88
2023-04-02T12:50:45.382Z,8.89
2023-04-02T12:51:47.641Z,8.89
2023-04-02T12:52:45.696Z,8.74
2023-04-02T12:53:45.258Z,8.66
2023-04-02T12:54:45.288Z,8.67
2023-04-02T12:55:45.390Z,8.58
2023-04-02T12:56:45.237Z,8.5
2023-04-02T12:57:45.656Z,8.46
2023-04-02T12:58:45.263Z,8.31
2023-04-02T12:59:45.688Z,8.23
2023-04-02T13:00:45.357Z,8.21
2023-04-02T13:01:45.462Z,8.16
2023-04-02T13:02:47.709Z,8.08
2023-04-02T13:03:45.365Z,7.99
2023-04-02T13:04:45.244Z,7.94
2023-04-02T13:05:45.251Z,7.96
2023-04-02T13:06:45.238Z,8.06
2023-04-02T13:07:45.337Z,8.1
2023-04-02T13:08:45.273Z,8.19
2023-04-02T13:09:45.261Z,8.23
2023-04-02T13:10:45.254Z,8.31
2023-04-02T13:11:45.260Z,8.34